Weather at Austin Bergstrom International Airport

Public forecast

Using degrees Fahrenheit for public forecast. Weather courtesy of forecast.io.

Current aviation weather report (METAR) for Austin Bergstrom International Airport

Retrieved 2022/01/26 19:53 UTC (1 hour ago):

KAUS 261953Z VRB06G14KT 10SM FEW065 FEW200 11/02 A3025 RMK AO2 SLP247 T01110022

Aviation forecast (TAF) for Austin Bergstrom International Airport

Retrieved 2022/01/26 18:39 UTC (2 hours ago):

TAF KAUS 261736Z 2618/2724 05010KT P6SM SCT025 TEMPO 2618/2620 BKN025 FM270300 VRB04KT P6SM BKN050